Time;durP1;ratioP1;P1;durP2;ratioP2;P2;SDS_P1;SDS_P2;PMS_P1;PMS_P2;Temp;Humidity;BMP_temperature;BMP_pressure;BME280_temperature;BME280_humidity;BME280_pressure;Samples;Min_cycle;Max_cycle;Signal;HPM_P1;HPM_P2
2022/07/29 00:01:42;;;;;;;5.93;3.03;;;;;;;27.27;36.16;99525.72;4463830;32;32549;-62
2022/07/29 00:04:10;;;;;;;8.07;3.55;;;;;;;27.36;35.90;99525.19;4466278;32;34410;-62
2022/07/29 00:06:38;;;;;;;6.40;3.12;;;;;;;27.47;35.53;99523.56;4466672;32;32978;-62
2022/07/29 00:09:06;;;;;;;5.97;3.62;;;;;;;27.36;35.52;99516.94;4464466;32;34716;-62
2022/07/29 00:11:34;;;;;;;6.95;3.42;;;;;;;27.41;35.30;99521.72;4453195;32;33679;-64
2022/07/29 00:14:02;;;;;;;6.43;3.17;;;;;;;27.24;36.01;99517.94;4458600;32;33582;-63
2022/07/29 00:16:29;;;;;;;6.28;3.65;;;;;;;27.32;35.57;99528.59;4462985;32;33464;-62
2022/07/29 00:18:57;;;;;;;8.05;3.85;;;;;;;27.31;35.62;99526.94;4467604;32;33924;-63
2022/07/29 00:21:28;;;;;;;5.93;3.30;;;;;;;27.49;35.21;99526.94;4452466;32;33963;-62
2022/07/29 00:23:56;;;;;;;7.22;4.12;;;;;;;27.18;35.86;99519.69;4455236;32;34977;-62
2022/07/29 00:26:24;;;;;;;6.50;4.00;;;;;;;27.08;36.01;99528.41;4451542;32;32075;-62
2022/07/29 00:28:51;;;;;;;10.80;3.62;;;;;;;27.31;35.67;99530.50;4452037;32;35348;-64
2022/07/29 00:31:39;;;;;;;6.45;3.47;;;;;;;27.12;36.08;99520.56;4460238;32;35055;-62
2022/07/29 00:35:43;;;;;;;7.10;3.92;;;;;;;26.92;36.61;99523.50;4451883;32;32174;-63
2022/07/29 00:36:54;;;;;;;6.55;3.62;;;;;;;26.77;36.89;99521.09;4457429;32;33173;-60
2022/07/29 00:39:22;;;;;;;6.57;3.47;;;;;;;26.75;36.92;99526.00;4467302;32;33790;-63
2022/07/29 00:41:50;;;;;;;6.45;3.65;;;;;;;26.74;37.04;99531.72;4465389;32;34985;-62
2022/07/29 00:44:17;;;;;;;10.77;3.95;;;;;;;26.57;37.27;99524.03;4451491;32;33706;-64
2022/07/29 00:46:45;;;;;;;6.00;3.95;;;;;;;26.63;37.26;99531.38;4453614;32;34033;-62
2022/07/29 00:49:13;;;;;;;5.70;3.75;;;;;;;26.85;36.88;99526.31;4455533;32;33768;-62
2022/07/29 00:51:40;;;;;;;7.25;3.40;;;;;;;26.86;36.84;99524.41;4426755;32;32476;-63
2022/07/29 00:54:08;;;;;;;5.70;3.72;;;;;;;26.78;37.03;99524.72;4453463;32;33815;-62
2022/07/29 00:56:36;;;;;;;8.02;4.03;;;;;;;26.55;37.51;99520.69;4451218;32;34255;-64
2022/07/29 00:59:03;;;;;;;7.60;4.20;;;;;;;26.81;37.03;99527.84;4465226;32;35527;-61
2022/07/29 01:01:31;;;;;;;5.60;3.50;;;;;;;26.77;37.18;99526.59;4447588;32;33752;-61
2022/07/29 01:03:59;;;;;;;7.55;3.55;;;;;;;26.79;37.01;99520.91;4449026;32;33867;-62
2022/07/29 01:06:27;;;;;;;7.62;4.37;;;;;;;26.63;37.32;99523.16;4445963;32;33164;-62
2022/07/29 01:08:55;;;;;;;7.22;3.72;;;;;;;26.47;37.74;99512.69;4445688;32;34758;-61
2022/07/29 01:11:22;;;;;;;7.50;4.30;;;;;;;26.73;37.22;99516.31;4466259;32;35100;-63
2022/07/29 01:13:51;;;;;;;5.53;3.50;;;;;;;26.74;37.19;99517.97;4460396;32;33938;-62
2022/07/29 01:16:30;;;;;;;7.57;4.25;;;;;;;26.90;36.86;99514.66;4454034;32;33247;-63
2022/07/29 01:19:07;;;;;;;8.95;3.97;;;;;;;26.60;37.39;99515.38;4453637;32;32505;-62
2022/07/29 01:21:51;;;;;;;7.45;3.80;;;;;;;26.73;37.18;99511.66;4463947;32;34926;-60
2022/07/29 01:24:24;;;;;;;5.75;4.03;;;;;;;26.80;37.22;99519.81;4457523;32;34902;-63
2022/07/29 01:27:10;;;;;;;8.20;4.03;;;;;;;26.80;37.02;99523.41;4443099;32;33176;-62
2022/07/29 01:29:47;;;;;;;6.87;4.03;;;;;;;27.10;36.51;99514.47;4452085;32;33262;-62
2022/07/29 01:32:19;;;;;;;7.18;3.53;;;;;;;26.87;36.79;99509.62;4454605;32;33669;-64
2022/07/29 01:35:30;;;;;;;7.85;4.10;;;;;;;26.97;36.71;99509.97;4454410;32;34989;-63
2022/07/29 01:38:08;;;;;;;6.65;4.18;;;;;;;26.94;36.76;99515.91;4443410;32;32168;-63
2022/07/29 01:40:42;;;;;;;8.00;3.95;;;;;;;26.92;37.11;99507.03;4454002;32;34117;-64
2022/07/29 01:43:14;;;;;;;6.90;3.92;;;;;;;26.55;37.49;99509.72;4454409;32;34894;-62
2022/07/29 01:45:46;;;;;;;5.40;4.00;;;;;;;26.84;37.38;99510.09;4443493;32;34567;-64
2022/07/29 01:48:31;;;;;;;8.68;4.45;;;;;;;26.92;36.95;99507.03;4460919;32;32220;-61
2022/07/29 01:51:45;;;;;;;7.05;3.90;;;;;;;27.00;36.91;99501.25;4467169;32;33867;-63
2022/07/29 01:54:19;;;;;;;6.18;4.05;;;;;;;27.07;36.61;99510.25;4402020;32;34891;-63
2022/07/29 01:56:49;;;;;;;7.78;4.05;;;;;;;27.09;36.64;99508.09;4394485;32;33511;-63
2022/07/29 01:59:18;;;;;;;8.20;3.78;;;;;;;27.20;36.74;99508.47;4418112;32;32484;-64
2022/07/29 02:01:48;;;;;;;5.90;3.72;;;;;;;27.28;36.64;99500.75;4459721;32;33650;-61
2022/07/29 02:04:21;;;;;;;7.68;4.20;;;;;;;27.46;36.04;99502.66;4449760;32;33951;-62
2022/07/29 02:07:02;;;;;;;5.28;3.78;;;;;;;27.43;36.12;99510.53;4444256;32;33724;-61
2022/07/29 02:09:31;;;;;;;6.12;4.07;;;;;;;27.51;36.04;99515.69;4462366;32;34154;-60
2022/07/29 02:12:01;;;;;;;8.57;4.55;;;;;;;27.49;36.19;99506.84;4452754;32;33881;-61
2022/07/29 02:14:33;;;;;;;5.97;3.60;;;;;;;27.64;35.84;99510.03;4444288;32;33968;-62
2022/07/29 02:17:02;;;;;;;8.15;3.83;;;;;;;27.73;35.79;99500.38;4439450;32;32761;-61
2022/07/29 02:19:32;;;;;;;6.70;4.10;;;;;;;27.89;35.52;99503.59;4442569;32;33283;-62
2022/07/29 02:22:00;;;;;;;6.47;3.72;;;;;;;27.80;35.86;99500.31;4456262;32;33724;-61
2022/07/29 02:24:30;;;;;;;5.57;3.55;;;;;;;27.95;35.37;99495.25;4453043;32;35009;-61
2022/07/29 02:26:59;;;;;;;6.97;3.75;;;;;;;27.94;35.42;99492.75;4454434;32;33591;-63
2022/07/29 02:29:28;;;;;;;6.55;4.18;;;;;;;27.94;35.37;99495.50;4458279;32;32567;-63
2022/07/29 02:31:57;;;;;;;7.18;4.22;;;;;;;27.91;35.35;99498.72;4453322;32;33575;-62
2022/07/29 02:34:25;;;;;;;7.07;4.20;;;;;;;27.91;35.46;99498.72;4453738;32;33742;-63
2022/07/29 02:36:54;;;;;;;7.62;4.43;;;;;;;27.92;35.39;99495.72;4455419;32;34135;-62
2022/07/29 02:39:23;;;;;;;10.68;4.47;;;;;;;27.98;35.29;99489.28;4456794;32;32562;-64
2022/07/29 02:41:54;;;;;;;5.57;3.85;;;;;;;28.03;35.26;99497.66;4453498;32;35236;-62
2022/07/29 02:44:24;;;;;;;6.72;3.65;;;;;;;27.98;35.24;99485.69;4460512;32;32774;-61
2022/07/29 02:47:20;;;;;;;5.93;4.28;;;;;;;27.92;35.48;99492.13;4452994;32;33683;-62
2022/07/29 02:49:57;;;;;;;6.90;4.82;;;;;;;27.86;35.52;99492.00;4453948;32;33130;-63
2022/07/29 02:52:35;;;;;;;6.45;4.15;;;;;;;27.80;35.62;99490.19;4445859;32;34976;-61
2022/07/29 02:55:16;;;;;;;7.53;4.80;;;;;;;27.83;35.57;99491.59;4464178;32;33769;-63
2022/07/29 02:57:57;;;;;;;7.12;4.05;;;;;;;27.79;35.69;99490.41;4448971;32;34566;-64
2022/07/29 03:00:27;;;;;;;9.70;3.75;;;;;;;27.77;35.67;99493.41;4447528;32;34721;-62
2022/07/29 03:02:59;;;;;;;7.30;4.35;;;;;;;27.80;35.67;99489.31;4468215;32;32554;-63
2022/07/29 03:05:27;;;;;;;7.18;4.30;;;;;;;27.84;35.72;99490.56;4466711;32;32548;-61
2022/07/29 03:08:00;;;;;;;5.53;3.78;;;;;;;27.82;35.81;99484.44;4461505;32;34741;-62
2022/07/29 03:10:28;;;;;;;7.00;4.45;;;;;;;27.74;35.82;99491.09;4461841;32;34550;-62
2022/07/29 03:12:56;;;;;;;7.20;4.53;;;;;;;27.70;35.91;99489.84;4448666;32;34713;-62
2022/07/29 03:15:26;;;;;;;6.87;4.22;;;;;;;27.56;36.27;99499.34;4440045;32;34049;-62
2022/07/29 03:17:55;;;;;;;7.47;4.57;;;;;;;27.64;36.21;99493.56;4444448;32;33757;-62
2022/07/29 03:20:22;;;;;;;8.77;5.10;;;;;;;27.63;36.17;99487.19;4443967;32;34323;-62
2022/07/29 03:22:50;;;;;;;7.65;5.03;;;;;;;27.66;35.99;99490.56;4464306;32;35043;-64
2022/07/29 03:25:19;;;;;;;6.37;4.40;;;;;;;27.64;36.00;99494.38;4459122;32;34038;-62
2022/07/29 03:27:48;;;;;;;9.00;4.15;;;;;;;27.58;36.22;99491.72;4459453;32;33836;-62
2022/07/29 03:30:16;;;;;;;6.65;4.60;;;;;;;27.63;36.10;99497.34;4466473;32;33231;-61
2022/07/29 03:32:50;;;;;;;7.72;4.68;;;;;;;27.64;36.12;99493.56;4464849;32;34873;-62
2022/07/29 03:35:19;;;;;;;7.95;4.53;;;;;;;27.48;36.43;99495.03;4454307;32;34360;-61
2022/07/29 03:37:47;;;;;;;6.60;4.30;;;;;;;27.38;36.77;99495.56;4458237;32;33933;-62
2022/07/29 03:40:23;;;;;;;7.15;4.55;;;;;;;27.54;36.55;99496.00;4469105;32;34608;-61
2022/07/29 03:42:51;;;;;;;13.82;4.78;;;;;;;27.62;36.31;99493.78;4466462;32;35152;-63
2022/07/29 03:45:19;;;;;;;7.55;4.80;;;;;;;27.47;36.54;99501.56;4460863;32;34023;-61
2022/07/29 03:47:53;;;;;;;6.75;4.45;;;;;;;27.40;36.80;99503.56;4456132;32;33587;-63
2022/07/29 03:50:29;;;;;;;8.73;4.75;;;;;;;27.49;36.72;99501.34;4454421;32;33101;-62
2022/07/29 03:52:57;;;;;;;10.48;5.10;;;;;;;27.37;37.08;99506.78;4452899;32;32392;-65
2022/07/29 03:55:26;;;;;;;8.73;4.82;;;;;;;27.36;37.06;99494.12;4447217;32;34529;-64
2022/07/29 03:57:55;;;;;;;7.28;5.07;;;;;;;27.17;37.55;99496.88;4443372;32;34900;-62
2022/07/29 04:00:24;;;;;;;10.70;4.30;;;;;;;27.32;37.33;99503.88;4447866;32;33332;-63
2022/07/29 04:02:52;;;;;;;7.78;4.32;;;;;;;27.30;37.25;99503.28;4469004;32;34913;-63
2022/07/29 04:05:19;;;;;;;7.43;4.32;;;;;;;27.31;37.28;99507.69;4468640;32;33907;-62
2022/07/29 04:07:47;;;;;;;7.82;4.28;;;;;;;27.25;37.27;99509.44;4463934;32;34599;-62
2022/07/29 04:10:16;;;;;;;7.85;4.93;;;;;;;27.35;37.19;99511.66;4465803;32;33119;-61
2022/07/29 04:12:56;;;;;;;6.70;4.47;;;;;;;27.31;37.38;99505.78;4453172;32;33909;-62
2022/07/29 04:15:24;;;;;;;8.88;4.82;;;;;;;27.38;37.33;99511.19;4453651;32;34952;-63
2022/07/29 04:17:57;;;;;;;7.90;4.60;;;;;;;27.22;37.64;99509.06;4459892;32;32100;-61
2022/07/29 04:20:25;;;;;;;6.28;4.25;;;;;;;27.21;37.79;99507.41;4459361;32;33277;-61
2022/07/29 04:22:53;;;;;;;6.47;4.35;;;;;;;27.11;37.98;99513.37;4458881;32;33729;-62
2022/07/29 04:25:20;;;;;;;6.30;4.43;;;;;;;27.25;37.90;99511.34;4455270;32;35245;-63
2022/07/29 04:28:22;;;;;;;5.90;4.22;;;;;;;27.33;37.77;99511.91;4460800;32;33626;-63
2022/07/29 04:30:43;;;;;;;9.50;4.43;;;;;;;27.27;37.85;99507.31;4454722;32;33136;-61
2022/07/29 04:33:11;;;;;;;9.02;4.40;;;;;;;27.31;37.85;99508.53;4461007;32;33724;-61
2022/07/29 04:35:39;;;;;;;7.53;4.22;;;;;;;27.32;37.87;99517.59;4463856;32;35326;-66
2022/07/29 04:38:18;;;;;;;8.70;5.00;;;;;;;27.45;37.56;99517.47;4458462;32;34348;-65
2022/07/29 04:40:46;;;;;;;6.78;4.72;;;;;;;27.43;37.76;99511.34;4462840;32;33521;-64
2022/07/29 04:43:16;;;;;;;6.30;4.30;;;;;;;27.55;37.57;99509.53;4461399;32;33624;-65
2022/07/29 04:45:50;;;;;;;6.55;4.12;;;;;;;27.63;36.89;99517.44;4463938;32;33861;-63
2022/07/29 04:48:17;;;;;;;8.55;4.72;;;;;;;27.66;36.81;99507.88;4456341;32;35225;-63
2022/07/29 04:50:45;;;;;;;6.47;4.53;;;;;;;27.70;36.65;99505.50;4463836;32;33284;-64
2022/07/29 04:53:12;;;;;;;8.15;4.30;;;;;;;27.74;36.85;99510.34;4460454;32;33721;-63
2022/07/29 04:55:40;;;;;;;9.88;4.87;;;;;;;27.93;37.03;99516.66;4463658;32;33920;-65
2022/07/29 04:58:07;;;;;;;6.65;4.80;;;;;;;27.76;36.71;99510.91;4455955;32;33455;-62
2022/07/29 05:00:36;;;;;;;7.15;4.18;;;;;;;27.90;36.69;99511.63;4456328;32;34584;-63
2022/07/29 05:03:03;;;;;;;6.22;4.50;;;;;;;28.22;36.20;99514.09;4453513;32;33683;-64
2022/07/29 05:05:31;;;;;;;8.65;4.53;;;;;;;28.28;35.59;99511.25;4452604;32;32712;-63
2022/07/29 05:07:59;;;;;;;6.60;3.78;;;;;;;27.91;36.54;99517.97;4454929;32;34115;-63
2022/07/29 05:10:26;;;;;;;7.72;4.30;;;;;;;28.18;36.34;99516.47;4453137;32;33407;-64
2022/07/29 05:12:54;;;;;;;7.00;4.30;;;;;;;28.12;36.11;99514.66;4458550;32;34717;-64
2022/07/29 05:15:22;;;;;;;8.75;4.25;;;;;;;28.03;36.34;99516.94;4445340;32;33666;-64
2022/07/29 05:17:49;;;;;;;7.65;4.37;;;;;;;28.28;36.05;99522.28;4459150;32;33686;-64
2022/07/29 05:20:18;;;;;;;6.72;4.18;;;;;;;28.38;35.80;99507.94;4467476;32;33274;-62
2022/07/29 05:22:46;;;;;;;8.35;4.40;;;;;;;28.14;36.28;99511.69;4463982;32;33972;-63
2022/07/29 05:25:13;;;;;;;8.63;4.70;;;;;;;28.21;35.96;99517.94;4463211;32;34819;-62
2022/07/29 05:27:41;;;;;;;7.22;4.50;;;;;;;28.03;36.40;99514.19;4466015;32;33978;-62
2022/07/29 05:30:09;;;;;;;6.82;4.53;;;;;;;27.92;36.01;99512.22;4451926;32;31990;-64
2022/07/29 05:32:37;;;;;;;6.50;4.05;;;;;;;28.13;36.29;99513.59;4457780;32;34627;-64
2022/07/29 05:35:05;;;;;;;8.27;4.50;;;;;;;28.12;35.70;99516.56;4455155;32;32790;-62
2022/07/29 05:37:33;;;;;;;7.20;4.95;;;;;;;28.19;36.13;99512.66;4458518;32;34072;-63
2022/07/29 05:40:01;;;;;;;8.20;4.82;;;;;;;27.86;35.83;99511.25;4466203;32;33642;-62
2022/07/29 05:42:29;;;;;;;5.82;4.25;;;;;;;27.45;36.69;99516.59;4466528;32;33837;-64
2022/07/29 05:44:56;;;;;;;7.90;4.70;;;;;;;26.94;37.93;99515.91;4464480;32;33650;-64
2022/07/29 05:47:24;;;;;;;10.77;5.75;;;;;;;26.76;38.04;99519.44;4463022;32;32744;-62
2022/07/29 05:49:52;;;;;;;7.30;4.28;;;;;;;27.13;37.91;99523.13;4452768;32;32910;-62
2022/07/29 05:52:20;;;;;;;6.97;4.45;;;;;;;27.61;36.55;99516.00;4466619;32;33596;-62
2022/07/29 05:54:48;;;;;;;6.95;4.68;;;;;;;26.72;38.42;99523.72;4455311;32;34057;-61
2022/07/29 05:57:20;;;;;;;7.37;4.75;;;;;;;27.33;37.26;99530.28;4460408;32;32606;-62
2022/07/29 05:59:49;;;;;;;8.55;5.00;;;;;;;27.21;37.41;99526.63;4456206;32;34534;-64
2022/07/29 06:02:17;;;;;;;7.78;4.75;;;;;;;27.33;37.49;99527.56;4463884;32;34977;-64
2022/07/29 06:04:44;;;;;;;7.87;5.35;;;;;;;27.41;37.39;99525.31;4457542;32;33975;-62
2022/07/29 06:07:12;;;;;;;7.05;4.82;;;;;;;27.25;37.57;99533.34;4452554;32;33725;-64
2022/07/29 06:09:40;;;;;;;7.53;4.90;;;;;;;27.41;37.60;99527.22;4452190;32;33228;-63
2022/07/29 06:12:08;;;;;;;6.95;4.43;;;;;;;27.64;37.13;99529.28;4455190;32;33792;-63
2022/07/29 06:14:37;;;;;;;8.07;4.68;;;;;;;27.38;37.46;99528.56;4456853;32;34060;-62
2022/07/29 06:17:05;;;;;;;9.93;4.82;;;;;;;27.59;37.33;99527.22;4455429;32;33956;-63
2022/07/29 06:19:36;;;;;;;7.07;4.60;;;;;;;27.32;37.32;99537.72;4466125;32;34230;-61
2022/07/29 06:22:04;;;;;;;9.15;4.82;;;;;;;27.35;37.88;99540.00;4469447;32;32917;-63
2022/07/29 06:24:31;;;;;;;7.45;5.00;;;;;;;27.86;36.91;99535.13;4455095;32;32129;-64
2022/07/29 06:26:59;;;;;;;7.20;4.97;;;;;;;27.93;37.04;99530.41;4454435;32;33133;-63
2022/07/29 06:29:27;;;;;;;9.65;4.68;;;;;;;27.55;37.53;99534.25;4454028;32;33572;-64
2022/07/29 06:31:54;;;;;;;6.55;4.40;;;;;;;27.46;37.42;99532.06;4464547;32;33531;-64
2022/07/29 06:34:22;;;;;;;9.52;5.12;;;;;;;27.23;38.12;99539.06;4469514;32;34560;-64
2022/07/29 06:36:49;;;;;;;6.53;4.50;;;;;;;27.28;38.27;99527.38;4470229;32;33994;-62
2022/07/29 06:39:19;;;;;;;10.05;4.90;;;;;;;27.53;38.12;99541.88;4455600;32;33413;-62
2022/07/29 06:41:48;;;;;;;13.50;5.85;;;;;;;27.75;37.89;99547.75;4454286;32;33818;-63
2022/07/29 06:44:17;;;;;;;7.53;5.20;;;;;;;27.77;37.78;99551.16;4457321;32;33880;-62
2022/07/29 06:46:48;;;;;;;11.60;5.43;;;;;;;27.89;37.27;99547.59;4470002;32;33869;-62
2022/07/29 06:49:16;;;;;;;7.87;4.85;;;;;;;27.79;37.47;99556.41;4469582;32;33276;-64
2022/07/29 06:51:44;;;;;;;7.60;5.07;;;;;;;27.39;38.15;99554.94;4469627;32;33910;-63
2022/07/29 06:54:12;;;;;;;9.25;4.65;;;;;;;27.64;37.84;99548.53;4457227;32;35017;-63
2022/07/29 06:56:41;;;;;;;14.27;5.25;;;;;;;28.08;36.96;99550.06;4469565;32;33441;-62
2022/07/29 06:59:11;;;;;;;11.12;4.95;;;;;;;28.15;37.09;99554.62;4462679;32;33472;-62
2022/07/29 07:01:40;;;;;;;13.80;4.87;;;;;;;28.13;37.01;99556.78;4454017;32;35451;-62
2022/07/29 07:04:09;;;;;;;9.55;4.93;;;;;;;28.16;37.06;99551.66;4453574;32;34011;-64
2022/07/29 07:06:37;;;;;;;9.05;4.78;;;;;;;28.07;36.73;99550.31;4468731;32;34486;-64
2022/07/29 07:09:05;;;;;;;9.32;4.70;;;;;;;28.04;37.04;99548.03;4467133;32;33225;-62
2022/07/29 07:11:32;;;;;;;10.07;4.57;;;;;;;28.36;36.58;99550.50;4469610;32;34991;-61
2022/07/29 07:14:00;;;;;;;7.95;4.15;;;;;;;28.26;36.24;99540.91;4454877;32;35607;-63
2022/07/29 07:16:41;;;;;;;9.32;5.03;;;;;;;28.40;36.00;99549.84;4468952;32;32759;-62
2022/07/29 07:19:08;;;;;;;9.57;4.87;;;;;;;28.29;37.26;99548.72;4465395;32;34807;-63
2022/07/29 07:21:36;;;;;;;11.52;5.45;;;;;;;28.50;35.84;99552.84;4461537;32;34369;-62
2022/07/29 07:24:04;;;;;;;10.13;5.03;;;;;;;28.23;36.48;99548.81;4451324;32;33627;-65
2022/07/29 07:26:32;;;;;;;10.10;4.87;;;;;;;28.52;36.20;99552.63;4453823;32;33987;-65
2022/07/29 07:29:00;;;;;;;11.00;4.30;;;;;;;28.64;36.02;99549.91;4456225;32;33336;-63
2022/07/29 07:31:27;;;;;;;10.20;4.72;;;;;;;28.68;35.86;99548.34;4455571;32;122168;-64
2022/07/29 07:33:55;;;;;;;7.47;4.57;;;;;;;28.86;35.63;99548.22;4452088;32;34595;-63
2022/07/29 07:36:24;;;;;;;8.38;4.55;;;;;;;28.86;35.90;99545.47;4464635;32;34563;-64
2022/07/29 07:38:52;;;;;;;9.57;4.90;;;;;;;29.10;35.45;99548.25;4455561;32;33007;-63
2022/07/29 07:41:20;;;;;;;9.40;4.55;;;;;;;29.02;35.60;99542.03;4454489;32;33871;-65
2022/07/29 07:43:48;;;;;;;8.73;5.03;;;;;;;29.14;35.22;99535.66;4468578;32;35180;-63
2022/07/29 07:46:16;;;;;;;10.43;4.90;;;;;;;28.48;36.31;99543.16;4467991;32;33819;-66
2022/07/29 07:48:44;;;;;;;8.73;4.70;;;;;;;29.01;35.43;99536.75;4468868;32;33126;-64
2022/07/29 07:51:11;;;;;;;11.10;4.62;;;;;;;29.35;35.06;99532.28;4469078;32;34706;-62
2022/07/29 07:53:39;;;;;;;12.75;5.28;;;;;;;29.40;34.91;99537.91;4465834;32;32716;-63
2022/07/29 07:56:07;;;;;;;8.50;5.28;;;;;;;29.82;34.21;99529.41;4465765;32;33458;-63
2022/07/29 07:58:38;;;;;;;6.90;4.68;;;;;;;29.28;35.16;99545.38;4442633;32;33124;-61
2022/07/29 08:01:07;;;;;;;7.37;5.05;;;;;;;29.51;34.59;99538.13;4466395;32;32547;-62
2022/07/29 08:03:35;;;;;;;8.60;5.00;;;;;;;29.62;34.65;99537.28;4453571;32;33929;-62
2022/07/29 08:06:03;;;;;;;7.75;4.93;;;;;;;29.58;34.55;99547.94;4453594;32;33546;-62
2022/07/29 08:08:31;;;;;;;7.62;4.60;;;;;;;29.79;34.08;99532.69;4453616;32;33319;-64
2022/07/29 08:11:01;;;;;;;8.02;4.85;;;;;;;30.01;34.57;99531.97;4453464;32;33782;-64
2022/07/29 08:13:37;;;;;;;8.55;4.85;;;;;;;29.98;34.09;99530.53;4459316;32;34134;-63
2022/07/29 08:16:12;;;;;;;8.52;5.03;;;;;;;30.48;33.95;99529.00;4456164;32;32641;-62
2022/07/29 08:18:41;;;;;;;8.57;5.07;;;;;;;30.54;33.79;99528.81;4453843;32;34436;-64
2022/07/29 08:21:09;;;;;;;8.43;5.28;;;;;;;30.09;33.60;99532.41;4460856;32;35039;-64
2022/07/29 08:23:46;;;;;;;12.05;4.72;;;;;;;30.20;33.75;99533.47;4456255;32;35155;-62
2022/07/29 08:26:24;;;;;;;7.50;4.87;;;;;;;30.25;34.07;99525.28;4468048;32;34931;-62
2022/07/29 08:28:52;;;;;;;9.30;5.22;;;;;;;30.03;33.80;99527.87;4469173;32;34346;-65
2022/07/29 08:31:19;;;;;;;7.85;5.25;;;;;;;29.83;33.88;99533.88;4454300;32;33443;-63
2022/07/29 08:33:47;;;;;;;11.30;4.85;;;;;;;30.22;33.57;99531.31;4468815;32;34046;-64
2022/07/29 08:36:14;;;;;;;9.27;5.25;;;;;;;30.25;33.52;99524.47;4466718;32;32793;-62
2022/07/29 08:38:42;;;;;;;6.90;5.12;;;;;;;30.24;33.96;99520.00;4468428;32;34436;-63
2022/07/29 08:41:10;;;;;;;11.18;5.65;;;;;;;30.54;32.77;99526.06;4453809;32;33381;-62
2022/07/29 08:43:40;;;;;;;8.68;4.55;;;;;;;30.68;33.03;99521.03;4456192;32;32897;-65
2022/07/29 08:46:08;;;;;;;8.35;4.47;;;;;;;30.66;32.10;99526.00;4458334;32;33810;-64
2022/07/29 08:48:36;;;;;;;8.18;4.80;;;;;;;31.22;31.94;99528.78;4468593;32;34441;-62
2022/07/29 08:51:05;;;;;;;7.40;4.45;;;;;;;31.03;31.71;99520.78;4461846;32;33776;-62
2022/07/29 08:53:33;;;;;;;8.77;4.60;;;;;;;31.11;31.04;99516.75;4438771;32;34021;-63
2022/07/29 08:56:01;;;;;;;9.10;4.87;;;;;;;30.99;31.96;99514.09;4446493;32;35218;-65
2022/07/29 08:58:32;;;;;;;10.55;5.07;;;;;;;31.15;30.89;99522.59;4453790;32;34807;-65
2022/07/29 09:01:03;;;;;;;;;;;;;;;31.45;30.73;99517.50;4463932;32;33324;-65
2022/07/29 09:03:35;;;;;;;9.25;3.83;;;;;;;31.17;30.45;99515.69;4453358;32;35059;-65
2022/07/29 09:06:04;;;;;;;7.28;4.55;;;;;;;31.51;29.98;99513.69;4464410;32;33774;-64
2022/07/29 09:08:32;;;;;;;10.18;5.60;;;;;;;31.39;30.70;99506.63;4460374;32;33780;-64
2022/07/29 09:11:03;;;;;;;9.20;4.60;;;;;;;31.75;30.15;99516.19;4452963;32;32488;-65
2022/07/29 09:13:32;;;;;;;5.47;3.78;;;;;;;31.52;30.11;99518.13;4459866;32;34045;-64
2022/07/29 09:16:00;;;;;;;6.32;4.37;;;;;;;31.83;30.28;99517.69;4464425;32;34031;-63
2022/07/29 09:18:40;;;;;;;5.90;4.15;;;;;;;32.06;29.49;99514.63;4463663;32;33468;-65
2022/07/29 09:24:06;;;;;;;9.25;4.78;;;;;;;32.23;29.06;99508.97;4467196;32;32587;-63
2022/07/29 09:26:39;;;;;;;7.22;4.25;;;;;;;32.16;29.52;99516.66;4464188;32;33820;-64
2022/07/29 09:29:12;;;;;;;7.90;4.00;;;;;;;32.12;28.53;99504.44;4463073;32;32416;-63
2022/07/29 09:31:45;;;;;;;9.77;4.30;;;;;;;32.51;28.36;99507.03;4459318;32;34767;-63
2022/07/29 09:34:16;;;;;;;8.33;4.40;;;;;;;32.51;28.36;99496.78;4452387;32;34050;-63
2022/07/29 09:36:48;;;;;;;7.32;4.25;;;;;;;32.51;28.21;99493.19;4452858;32;32890;-64
2022/07/29 09:39:27;;;;;;;6.60;4.37;;;;;;;32.92;27.79;99494.31;4461947;32;32091;-65
2022/07/29 09:41:57;;;;;;;6.00;4.05;;;;;;;32.95;28.48;99493.78;4465226;32;33962;-63
2022/07/29 09:44:25;;;;;;;6.90;3.72;;;;;;;33.42;27.20;99487.41;4467979;32;34207;-63
2022/07/29 09:47:06;;;;;;;7.35;3.65;;;;;;;33.52;26.93;99484.69;4462110;32;34014;-64
2022/07/29 09:49:36;;;;;;;6.90;4.40;;;;;;;33.66;26.38;99486.97;4463579;32;33337;-63
2022/07/29 09:52:06;;;;;;;7.20;4.40;;;;;;;33.60;26.13;99486.09;4456292;32;34962;-65
2022/07/29 09:54:38;;;;;;;8.98;3.87;;;;;;;34.03;25.37;99470.97;4454668;32;35238;-64
2022/07/29 09:57:08;;;;;;;5.30;3.20;;;;;;;33.94;25.52;99475.37;4455130;32;34722;-63
2022/07/29 09:59:36;;;;;;;11.00;4.00;;;;;;;33.71;25.71;99481.41;4469579;32;33435;-63
2022/07/29 10:02:17;;;;;;;9.07;3.92;;;;;;;34.35;25.56;99474.59;4469664;32;35181;-65
2022/07/29 10:04:50;;;;;;;8.30;4.10;;;;;;;34.11;25.75;99474.31;4455762;32;33875;-63
2022/07/29 10:07:19;;;;;;;5.78;3.62;;;;;;;34.43;25.09;99465.69;4454625;32;33969;-62
2022/07/29 10:09:54;;;;;;;7.90;3.72;;;;;;;34.47;24.51;99470.41;4443770;32;34086;-63
2022/07/29 10:12:22;;;;;;;6.87;3.92;;;;;;;33.58;25.67;99471.66;4458536;32;33542;-64
2022/07/29 10:14:50;;;;;;;6.57;3.55;;;;;;;34.28;25.37;99467.34;4464319;32;35203;-65
2022/07/29 10:17:19;;;;;;;6.72;3.35;;;;;;;34.46;24.89;99470.72;4461600;32;32487;-61
2022/07/29 10:19:46;;;;;;;8.10;3.65;;;;;;;35.03;23.95;99463.16;4465173;32;33403;-60
2022/07/29 10:22:14;;;;;;;10.60;3.87;;;;;;;35.10;23.97;99469.25;4462636;32;34159;-65
2022/07/29 10:25:02;;;;;;;6.00;3.47;;;;;;;35.40;23.46;99452.44;4460411;32;35007;-63
2022/07/29 10:27:30;;;;;;;5.32;3.33;;;;;;;34.82;23.46;99463.19;4463582;32;34512;-62
2022/07/29 10:29:59;;;;;;;9.88;2.80;;;;;;;35.26;22.92;99470.03;4458065;32;34295;-60
2022/07/29 10:33:07;;;;;;;9.73;3.20;;;;;;;35.09;22.80;99456.44;4467037;32;34760;-60
2022/07/29 10:35:53;;;;;;;6.80;3.12;;;;;;;35.49;22.60;99449.91;4459033;32;34222;-60
2022/07/29 10:38:59;;;;;;;6.20;3.40;;;;;;;35.69;22.52;99455.38;4459095;32;33972;-63
2022/07/29 10:41:48;;;;;;;8.73;3.50;;;;;;;35.76;22.08;99448.66;4397115;32;34423;-62
2022/07/29 10:44:18;;;;;;;5.40;3.15;;;;;;;35.63;22.40;99442.59;4399840;32;33407;-63
2022/07/29 10:46:51;;;;;;;8.77;3.78;;;;;;;35.42;22.64;99447.44;4438373;32;35051;-60
2022/07/29 10:49:20;;;;;;;9.35;3.83;;;;;;;34.72;23.11;99441.78;4459497;32;33721;-63
2022/07/29 10:52:04;;;;;;;5.30;3.35;;;;;;;35.25;22.43;99435.84;4458787;32;33400;-61
2022/07/29 10:54:35;;;;;;;7.57;3.10;;;;;;;35.08;22.79;99444.50;4453052;32;35134;-62
2022/07/29 10:57:15;;;;;;;7.97;3.10;;;;;;;35.40;22.84;99437.69;4459291;32;35285;-61
2022/07/29 10:59:45;;;;;;;6.78;3.03;;;;;;;35.78;22.35;99436.13;4456982;32;33686;-65
2022/07/29 11:02:31;;;;;;;10.15;3.47;;;;;;;35.75;22.34;99435.84;4466102;32;33967;-61
2022/07/29 11:05:19;;;;;;;7.57;3.37;;;;;;;35.34;22.42;99439.66;4461018;32;32372;-60
2022/07/29 11:08:11;;;;;;;6.80;3.35;;;;;;;35.74;22.14;99432.25;4465855;32;35142;-63
2022/07/29 11:10:48;;;;;;;5.60;2.92;;;;;;;35.48;22.39;99425.97;4457314;32;33561;-60
2022/07/29 11:13:41;;;;;;;7.95;3.25;;;;;;;35.65;22.35;99414.50;4444193;32;33349;-61
2022/07/29 11:16:09;;;;;;;7.90;3.20;;;;;;;35.85;21.32;99422.69;4453851;32;33888;-63
2022/07/29 11:19:12;;;;;;;5.22;2.87;;;;;;;36.32;21.25;99429.59;4438341;32;34283;-64
2022/07/29 11:21:42;;;;;;;5.75;2.95;;;;;;;35.68;21.51;99419.47;4463489;32;33983;-64
2022/07/29 11:24:27;;;;;;;6.30;3.00;;;;;;;35.60;21.17;99418.16;4460383;32;34192;-62
2022/07/29 11:27:13;;;;;;;6.70;3.28;;;;;;;35.61;21.35;99403.09;4450427;32;34848;-65
2022/07/29 11:29:53;;;;;;;7.80;3.47;;;;;;;34.94;22.07;99407.28;4451308;32;35069;-64
2022/07/29 11:32:24;;;;;;;6.40;2.72;;;;;;;34.84;22.52;99404.53;4456960;32;33987;-64
2022/07/29 11:35:14;;;;;;;6.03;2.72;;;;;;;34.87;22.75;99393.66;4464721;32;34724;-63
2022/07/29 11:37:46;;;;;;;5.70;3.30;;;;;;;35.20;22.20;99394.13;4465257;32;34112;-64
2022/07/29 11:40:22;;;;;;;7.72;3.30;;;;;;;34.74;23.40;99395.09;4463343;32;34061;-65
2022/07/29 11:42:50;;;;;;;5.68;3.05;;;;;;;35.54;21.76;99396.19;4452688;32;34649;-64
2022/07/29 11:45:21;;;;;;;7.25;3.30;;;;;;;35.56;21.79;99391.16;4460575;32;33443;-63
2022/07/29 11:48:15;;;;;;;5.12;3.10;;;;;;;35.71;21.06;99381.88;4451349;32;32562;-64
2022/07/29 11:51:09;;;;;;;6.73;3.07;;;;;;;35.55;21.91;99383.94;4454403;32;33741;-63
2022/07/29 11:53:39;;;;;;;6.45;3.42;;;;;;;35.56;22.58;99394.78;4460207;32;34059;-64
2022/07/29 11:56:09;;;;;;;5.78;3.42;;;;;;;35.91;21.33;99392.88;4456606;32;33539;-61